createdAt,value
2022-07-30T00:01:35.718Z,55.80
2022-07-30T00:04:02.834Z,55.70
2022-07-30T00:06:29.401Z,55.50
2022-07-30T00:08:55.888Z,55.80
2022-07-30T00:13:54.060Z,55.90
2022-07-30T00:18:47.563Z,55.80
2022-07-30T00:21:30.319Z,55.70
2022-07-30T00:24:01.683Z,55.60
2022-07-30T00:28:55.654Z,55.70
2022-07-30T00:31:22.078Z,55.80
2022-07-30T00:33:48.528Z,55.60
2022-07-30T00:36:15.000Z,55.60
2022-07-30T00:41:08.444Z,55.80
2022-07-30T00:43:34.911Z,55.40
2022-07-30T00:48:28.418Z,55.80
2022-07-30T00:50:54.877Z,55.10
2022-07-30T00:53:21.345Z,56.00
2022-07-30T00:55:47.791Z,55.80
2022-07-30T00:58:14.256Z,56.00
2022-07-30T01:00:40.707Z,55.70
2022-07-30T01:03:07.159Z,55.70
2022-07-30T01:05:33.618Z,55.50
2022-07-30T01:08:00.049Z,55.00
2022-07-30T01:10:26.548Z,55.70
2022-07-30T01:12:52.994Z,55.40
2022-07-30T01:15:19.451Z,55.40
2022-07-30T01:17:45.903Z,55.70
2022-07-30T01:22:46.141Z,55.30
2022-07-30T01:25:12.585Z,55.70
2022-07-30T01:27:39.051Z,55.60
2022-07-30T01:30:05.479Z,55.80
2022-07-30T01:32:31.926Z,55.20
2022-07-30T01:34:58.366Z,55.00
2022-07-30T01:37:24.837Z,55.60
2022-07-30T01:39:51.276Z,55.40
2022-07-30T01:44:44.718Z,54.70
2022-07-30T01:49:38.184Z,55.30
2022-07-30T01:52:04.633Z,55.60
2022-07-30T01:54:31.094Z,55.40
2022-07-30T01:56:57.926Z,55.80
2022-07-30T01:59:24.590Z,55.30
2022-07-30T02:01:51.040Z,55.30
2022-07-30T02:04:17.503Z,55.40
2022-07-30T02:06:44.031Z,55.60
2022-07-30T02:09:11.225Z,54.70
2022-07-30T02:11:37.997Z,55.50
2022-07-30T02:14:04.437Z,55.20
2022-07-30T02:16:30.967Z,54.60
2022-07-30T02:18:58.622Z,55.30
2022-07-30T02:21:25.729Z,55.50
2022-07-30T02:24:03.224Z,55.70
2022-07-30T02:28:56.674Z,55.40
2022-07-30T02:31:23.153Z,55.50
2022-07-30T02:33:49.652Z,55.30
2022-07-30T02:38:43.115Z,55.30
2022-07-30T02:41:10.485Z,55.60
2022-07-30T02:43:37.032Z,54.50
2022-07-30T02:46:03.474Z,55.30
2022-07-30T02:48:35.041Z,55.30
2022-07-30T02:51:01.912Z,55.50
2022-07-30T02:55:55.348Z,55.00
2022-07-30T02:58:21.788Z,54.30
2022-07-30T03:00:48.298Z,54.40
2022-07-30T03:05:41.761Z,55.50
2022-07-30T03:08:08.201Z,55.40
2022-07-30T03:10:34.657Z,54.40
2022-07-30T03:13:01.101Z,55.20
2022-07-30T03:15:27.550Z,55.00
2022-07-30T03:17:54.007Z,54.50
2022-07-30T03:20:22.164Z,55.00
2022-07-30T03:22:48.634Z,55.20
2022-07-30T03:25:15.086Z,54.40
2022-07-30T03:27:41.558Z,54.70
2022-07-30T03:30:07.999Z,54.30
2022-07-30T03:32:34.436Z,55.50
2022-07-30T03:35:06.124Z,54.50
2022-07-30T03:37:33.174Z,54.70
2022-07-30T03:39:59.642Z,55.30
2022-07-30T03:42:26.077Z,55.00
2022-07-30T03:47:19.506Z,54.30
2022-07-30T03:49:45.956Z,55.10
2022-07-30T03:52:12.404Z,55.00
2022-07-30T03:57:05.886Z,55.00
2022-07-30T03:59:32.340Z,55.20
2022-07-30T04:01:58.892Z,54.90
2022-07-30T04:04:33.967Z,54.30
2022-07-30T04:09:27.841Z,54.70
2022-07-30T04:11:54.310Z,54.90
2022-07-30T04:14:20.750Z,54.90
2022-07-30T04:16:47.275Z,54.70
2022-07-30T04:21:40.732Z,54.30
2022-07-30T04:24:07.199Z,54.50
2022-07-30T04:26:33.644Z,54.70
2022-07-30T04:29:00.095Z,55.00
2022-07-30T04:31:26.607Z,54.90
2022-07-30T04:33:53.098Z,54.60
2022-07-30T04:36:19.538Z,55.10
2022-07-30T04:38:45.978Z,54.90
2022-07-30T04:41:12.424Z,53.80
2022-07-30T04:43:38.848Z,52.70
2022-07-30T04:48:32.286Z,53.00
2022-07-30T04:50:58.732Z,52.40
2022-07-30T04:53:25.174Z,50.30
2022-07-30T04:55:51.640Z,51.00
2022-07-30T04:58:19.982Z,51.30
2022-07-30T05:00:46.459Z,51.90
2022-07-30T05:03:12.908Z,52.10
2022-07-30T05:05:39.427Z,52.70
2022-07-30T05:08:05.896Z,52.70
2022-07-30T05:10:32.349Z,52.60
2022-07-30T05:12:58.821Z,53.30
2022-07-30T05:15:36.936Z,53.50
2022-07-30T05:18:03.898Z,53.50
2022-07-30T05:20:30.342Z,54.00
2022-07-30T05:22:57.738Z,53.10
2022-07-30T05:25:24.179Z,52.90
2022-07-30T05:32:44.613Z,54.60
2022-07-30T05:35:13.481Z,54.50
2022-07-30T05:37:39.934Z,54.40
2022-07-30T05:40:06.398Z,54.90
2022-07-30T05:42:32.844Z,54.90
2022-07-30T05:44:59.319Z,55.50
2022-07-30T05:47:25.776Z,54.70
2022-07-30T05:49:52.212Z,55.20
2022-07-30T05:52:18.671Z,55.20
2022-07-30T05:54:45.120Z,55.30
2022-07-30T05:57:11.617Z,55.20
2022-07-30T05:59:38.118Z,55.90
2022-07-30T06:02:04.599Z,56.00
2022-07-30T06:04:31.136Z,55.90
2022-07-30T06:06:57.750Z,55.90
2022-07-30T06:09:32.940Z,56.80
2022-07-30T06:12:03.719Z,57.40
2022-07-30T06:16:57.320Z,57.20
2022-07-30T06:19:23.998Z,57.20
2022-07-30T06:22:06.320Z,57.10
2022-07-30T06:24:33.722Z,56.50
2022-07-30T06:27:00.516Z,56.10
2022-07-30T06:29:27.192Z,55.90
2022-07-30T06:31:53.638Z,56.70
2022-07-30T06:34:20.080Z,56.30
2022-07-30T06:36:46.554Z,56.60
2022-07-30T06:39:13.043Z,56.70
2022-07-30T06:44:06.477Z,55.00
2022-07-30T06:46:32.983Z,54.50
2022-07-30T06:48:59.534Z,53.70
2022-07-30T06:51:26.418Z,54.00
2022-07-30T06:53:52.873Z,53.70
2022-07-30T06:56:19.346Z,53.90
2022-07-30T06:58:45.828Z,54.00
2022-07-30T07:01:12.329Z,53.60
2022-07-30T07:03:40.153Z,54.00
2022-07-30T07:06:07.120Z,53.00
2022-07-30T07:08:33.658Z,53.10
2022-07-30T07:11:00.115Z,52.50
2022-07-30T07:13:26.560Z,52.90
2022-07-30T07:15:53.021Z,52.50
2022-07-30T07:18:19.481Z,53.80
2022-07-30T07:20:45.926Z,52.50
2022-07-30T07:23:12.682Z,53.10
2022-07-30T07:25:40.293Z,53.60
2022-07-30T07:28:10.841Z,52.60
2022-07-30T07:30:39.815Z,53.60
2022-07-30T07:33:06.291Z,52.90
2022-07-30T07:35:32.731Z,52.70
2022-07-30T07:38:15.046Z,52.20
2022-07-30T07:40:41.499Z,51.80
2022-07-30T07:43:07.951Z,52.10
2022-07-30T07:45:34.401Z,52.80
2022-07-30T07:48:00.857Z,51.70
2022-07-30T07:50:27.305Z,51.80
2022-07-30T07:52:53.766Z,52.60
2022-07-30T07:55:22.509Z,52.00
2022-07-30T07:57:48.966Z,52.70
2022-07-30T08:00:16.081Z,52.10
2022-07-30T08:02:42.642Z,51.60
2022-07-30T08:05:09.140Z,51.40
2022-07-30T08:07:35.630Z,52.10
2022-07-30T08:10:02.077Z,50.40
2022-07-30T08:12:28.534Z,50.40
2022-07-30T08:14:54.974Z,50.60
2022-07-30T08:17:21.499Z,51.30
2022-07-30T08:19:48.015Z,50.40
2022-07-30T08:22:14.465Z,50.50
2022-07-30T08:24:40.962Z,50.50
2022-07-30T08:27:07.416Z,50.00
2022-07-30T08:29:33.885Z,50.30
2022-07-30T08:32:00.701Z,50.30
2022-07-30T08:36:54.329Z,50.70
2022-07-30T08:39:20.793Z,50.40
2022-07-30T08:41:47.252Z,49.90
2022-07-30T08:44:13.705Z,48.60
2022-07-30T08:49:10.824Z,49.10
2022-07-30T08:51:37.927Z,49.80
2022-07-30T08:56:31.390Z,49.20
2022-07-30T08:58:57.865Z,49.40
2022-07-30T09:01:24.342Z,49.20
2022-07-30T09:03:50.793Z,48.90
2022-07-30T09:06:17.260Z,49.10
2022-07-30T09:08:43.704Z,48.70
2022-07-30T09:13:37.157Z,48.10
2022-07-30T09:16:03.628Z,47.80
2022-07-30T09:20:57.107Z,46.70
2022-07-30T09:23:23.573Z,46.00
2022-07-30T09:25:50.022Z,48.40
2022-07-30T09:28:17.094Z,46.60
2022-07-30T09:30:43.667Z,46.10
2022-07-30T09:38:06.487Z,46.60
2022-07-30T09:40:33.273Z,45.90
2022-07-30T09:42:59.734Z,46.70
2022-07-30T09:45:26.215Z,46.70
2022-07-30T09:48:01.473Z,45.80
2022-07-30T09:50:30.295Z,46.10
2022-07-30T09:52:57.341Z,46.00
2022-07-30T09:55:23.796Z,46.40
2022-07-30T09:57:51.473Z,45.50
2022-07-30T10:00:24.054Z,45.20
2022-07-30T10:02:50.749Z,44.90
2022-07-30T10:05:19.012Z,45.80
2022-07-30T10:07:46.848Z,45.10
2022-07-30T10:10:14.929Z,44.60
2022-07-30T10:15:10.620Z,45.10
2022-07-30T10:17:40.121Z,45.20
2022-07-30T10:20:08.936Z,46.30
2022-07-30T10:22:36.186Z,44.90
2022-07-30T10:25:02.695Z,44.90
2022-07-30T10:27:32.230Z,46.00
2022-07-30T10:29:58.803Z,45.70
2022-07-30T10:32:30.977Z,45.50
2022-07-30T10:34:57.679Z,45.30
2022-07-30T10:37:24.530Z,45.10
2022-07-30T10:42:19.539Z,46.50
2022-07-30T10:44:46.000Z,45.60
2022-07-30T10:47:12.454Z,45.20
2022-07-30T10:52:07.360Z,45.40
2022-07-30T10:54:33.798Z,45.90
2022-07-30T10:57:05.882Z,46.40
2022-07-30T10:59:32.364Z,46.80
2022-07-30T11:02:03.513Z,46.30
2022-07-30T11:04:30.236Z,45.50
2022-07-30T11:06:56.702Z,45.60
2022-07-30T11:09:23.145Z,46.80
2022-07-30T11:12:01.905Z,46.50
2022-07-30T11:17:00.040Z,47.00
2022-07-30T11:19:55.834Z,47.10
2022-07-30T11:22:13.590Z,46.90
2022-07-30T11:24:41.475Z,46.50
2022-07-30T11:27:11.953Z,47.00
2022-07-30T11:29:50.719Z,45.20
2022-07-30T11:32:17.549Z,44.20
2022-07-30T11:34:43.997Z,44.00
2022-07-30T11:37:18.373Z,43.90
2022-07-30T11:39:48.481Z,44.70
2022-07-30T11:42:15.861Z,45.30
2022-07-30T11:44:42.313Z,45.60
2022-07-30T11:47:08.837Z,45.70
2022-07-30T11:49:35.296Z,46.10
2022-07-30T11:52:01.924Z,46.30
2022-07-30T11:54:28.537Z,45.50
2022-07-30T11:56:54.985Z,45.90
2022-07-30T11:59:21.473Z,45.90
2022-07-30T12:01:47.913Z,45.80
2022-07-30T12:04:14.370Z,46.30
2022-07-30T12:06:40.843Z,46.30
2022-07-30T12:09:07.299Z,46.50
2022-07-30T12:11:36.835Z,46.50
2022-07-30T12:14:03.290Z,46.80
2022-07-30T12:16:29.754Z,46.60
2022-07-30T12:18:56.217Z,46.90
2022-07-30T12:21:22.680Z,46.80
2022-07-30T12:23:49.128Z,46.60
2022-07-30T12:26:15.578Z,46.70
2022-07-30T12:28:42.044Z,46.80
2022-07-30T12:31:08.487Z,46.70
2022-07-30T12:33:37.396Z,46.60
2022-07-30T12:36:05.843Z,45.60
2022-07-30T12:38:32.309Z,46.40
2022-07-30T12:40:58.810Z,46.30
2022-07-30T12:43:25.292Z,46.90
2022-07-30T12:48:20.935Z,46.50
2022-07-30T12:50:48.621Z,46.70
2022-07-30T12:53:15.069Z,46.10
2022-07-30T12:55:41.519Z,46.00
2022-07-30T13:00:35.741Z,46.00
2022-07-30T13:03:02.186Z,46.10
2022-07-30T13:05:28.625Z,46.00
2022-07-30T13:07:55.070Z,45.60
2022-07-30T13:10:21.515Z,47.10
2022-07-30T13:12:47.964Z,47.10
2022-07-30T13:15:14.412Z,47.90
2022-07-30T13:17:40.870Z,48.30
2022-07-30T13:20:07.357Z,47.70
2022-07-30T13:22:33.878Z,48.00
2022-07-30T13:25:00.336Z,48.00
2022-07-30T13:27:26.808Z,47.90
2022-07-30T13:32:20.288Z,48.30
2022-07-30T13:34:46.740Z,48.40
2022-07-30T13:37:13.194Z,48.20
2022-07-30T13:42:06.646Z,48.80
2022-07-30T13:44:33.102Z,48.40
2022-07-30T13:47:01.907Z,48.30
2022-07-30T13:51:55.718Z,48.30
2022-07-30T13:54:22.164Z,48.90
2022-07-30T13:56:48.607Z,48.80
2022-07-30T13:59:15.985Z,48.60
2022-07-30T14:01:42.494Z,48.40
2022-07-30T14:04:09.019Z,48.60
2022-07-30T14:06:35.483Z,48.30
2022-07-30T14:09:01.970Z,48.60
2022-07-30T14:11:28.434Z,47.50
2022-07-30T14:13:54.914Z,47.60
2022-07-30T14:16:43.501Z,46.70
2022-07-30T14:21:34.801Z,46.50
2022-07-30T14:24:01.273Z,46.30
2022-07-30T14:26:36.184Z,46.80
2022-07-30T14:29:03.158Z,46.70
2022-07-30T14:31:29.599Z,45.00
2022-07-30T14:33:56.074Z,45.50
2022-07-30T14:36:22.528Z,46.20
2022-07-30T14:38:49.002Z,45.60
2022-07-30T14:41:15.477Z,46.40
2022-07-30T14:43:41.934Z,46.40
2022-07-30T14:46:08.389Z,45.60
2022-07-30T14:48:34.889Z,45.80
2022-07-30T14:51:14.796Z,46.10
2022-07-30T14:53:47.336Z,46.00
2022-07-30T14:56:13.899Z,46.60
2022-07-30T14:58:40.742Z,45.50
2022-07-30T15:01:14.875Z,46.20
2022-07-30T15:03:43.225Z,46.00
2022-07-30T15:06:09.682Z,46.40
2022-07-30T15:08:36.148Z,46.20
2022-07-30T15:11:03.533Z,46.00
2022-07-30T15:13:34.623Z,46.10
2022-07-30T15:16:02.849Z,46.10
2022-07-30T15:18:29.341Z,45.40
2022-07-30T15:20:56.280Z,45.20
2022-07-30T15:23:22.791Z,46.10
2022-07-30T15:25:49.266Z,46.10
2022-07-30T15:28:15.718Z,46.30
2022-07-30T15:33:09.162Z,46.30
2022-07-30T15:35:36.431Z,46.20
2022-07-30T15:38:02.921Z,45.90
2022-07-30T15:40:29.399Z,45.20
2022-07-30T15:42:55.880Z,46.20
2022-07-30T15:45:22.327Z,46.80
2022-07-30T15:47:48.789Z,46.90
2022-07-30T15:50:15.246Z,47.00
2022-07-30T15:52:41.689Z,47.50
2022-07-30T15:55:08.145Z,47.60
2022-07-30T15:57:34.598Z,47.60
2022-07-30T16:00:01.143Z,47.80
2022-07-30T16:02:27.597Z,47.70
2022-07-30T16:04:54.074Z,47.70
2022-07-30T16:07:20.518Z,47.80
2022-07-30T16:09:46.970Z,47.60
2022-07-30T16:12:13.410Z,47.30
2022-07-30T16:17:10.490Z,47.90
2022-07-30T16:19:39.696Z,47.80
2022-07-30T16:22:06.149Z,47.80
2022-07-30T16:24:32.618Z,47.90
2022-07-30T16:26:59.070Z,48.00
2022-07-30T16:29:25.576Z,48.30
2022-07-30T16:31:52.033Z,48.10
2022-07-30T16:34:26.575Z,48.30
2022-07-30T16:36:53.467Z,48.10
2022-07-30T16:39:19.923Z,48.40
2022-07-30T16:41:46.370Z,48.40
2022-07-30T16:44:12.835Z,48.30
2022-07-30T16:46:39.304Z,48.50
2022-07-30T16:49:05.855Z,48.60
2022-07-30T16:51:32.354Z,48.60
2022-07-30T16:53:58.847Z,48.40
2022-07-30T16:56:25.294Z,48.70
2022-07-30T16:58:51.767Z,48.70
2022-07-30T17:01:18.337Z,48.70
2022-07-30T17:03:44.899Z,48.80
2022-07-30T17:06:11.378Z,48.60
2022-07-30T17:08:37.830Z,48.40
2022-07-30T17:11:08.726Z,48.90
2022-07-30T17:13:36.322Z,48.50
2022-07-30T17:16:02.792Z,48.80
2022-07-30T17:18:29.236Z,48.90
2022-07-30T17:20:55.672Z,48.40
2022-07-30T17:25:49.110Z,49.00
2022-07-30T17:28:15.552Z,49.10
2022-07-30T17:30:42.005Z,48.60
2022-07-30T17:33:08.458Z,47.90
2022-07-30T17:38:01.929Z,49.10
2022-07-30T17:40:31.598Z,49.00
2022-07-30T17:42:58.375Z,49.00
2022-07-30T17:45:24.826Z,49.30
2022-07-30T17:47:51.271Z,48.90
2022-07-30T17:52:44.721Z,49.00
2022-07-30T17:55:11.295Z,48.90
2022-07-30T17:57:37.782Z,49.00
2022-07-30T18:00:04.242Z,49.20
2022-07-30T18:02:30.690Z,49.30
2022-07-30T18:04:57.145Z,49.20
2022-07-30T18:07:23.590Z,49.00
2022-07-30T18:12:17.023Z,49.30
2022-07-30T18:14:43.478Z,49.30
2022-07-30T18:19:41.006Z,49.60
2022-07-30T18:22:07.545Z,49.50
2022-07-30T18:24:34.006Z,49.00
2022-07-30T18:27:07.080Z,49.50
2022-07-30T18:29:33.555Z,49.50
2022-07-30T18:32:00.321Z,49.20
2022-07-30T18:36:54.033Z,49.90
2022-07-30T18:39:20.474Z,49.90
2022-07-30T18:41:46.917Z,49.10
2022-07-30T18:44:13.381Z,49.10
2022-07-30T18:49:21.212Z,49.70
2022-07-30T18:51:53.266Z,49.50
2022-07-30T18:54:19.736Z,49.90
2022-07-30T18:56:46.197Z,49.90
2022-07-30T18:59:12.666Z,49.90
2022-07-30T19:01:39.266Z,49.90
2022-07-30T19:04:05.835Z,49.70
2022-07-30T19:06:32.306Z,49.30
2022-07-30T19:08:58.744Z,50.30
2022-07-30T19:11:25.230Z,50.40
2022-07-30T19:13:51.682Z,50.50
2022-07-30T19:16:18.149Z,49.60
2022-07-30T19:18:44.598Z,50.20
2022-07-30T19:21:14.065Z,50.40
2022-07-30T19:23:40.775Z,50.20
2022-07-30T19:28:34.218Z,50.10
2022-07-30T19:31:00.652Z,50.60
2022-07-30T19:33:27.119Z,50.40
2022-07-30T19:35:53.564Z,50.30
2022-07-30T19:38:21.788Z,50.70
2022-07-30T19:40:50.293Z,50.70
2022-07-30T19:43:16.795Z,50.70
2022-07-30T19:45:47.326Z,50.40
2022-07-30T19:48:14.659Z,49.90
2022-07-30T19:50:41.136Z,50.60
2022-07-30T19:53:07.612Z,50.30
2022-07-30T20:00:29.408Z,50.60
2022-07-30T20:02:56.077Z,50.70
2022-07-30T20:07:51.650Z,50.10
2022-07-30T20:10:18.501Z,50.60
2022-07-30T20:12:49.684Z,50.90
2022-07-30T20:17:43.820Z,50.30
2022-07-30T20:20:12.892Z,50.90
2022-07-30T20:22:39.517Z,50.80
2022-07-30T20:25:06.442Z,50.70
2022-07-30T20:27:36.275Z,50.50
2022-07-30T20:30:05.052Z,50.70
2022-07-30T20:32:31.523Z,51.00
2022-07-30T20:34:58.314Z,51.10
2022-07-30T20:37:24.885Z,50.20
2022-07-30T20:39:54.137Z,50.40
2022-07-30T20:42:21.893Z,50.80
2022-07-30T20:44:50.685Z,50.70
2022-07-30T20:47:17.402Z,50.70
2022-07-30T20:50:00.962Z,50.30
2022-07-30T20:52:28.178Z,50.30
2022-07-30T20:54:55.965Z,50.90
2022-07-30T20:57:57.100Z,50.30
2022-07-30T21:00:08.863Z,50.50
2022-07-30T21:02:35.352Z,50.90
2022-07-30T21:05:04.460Z,50.70
2022-07-30T21:07:36.759Z,50.80
2022-07-30T21:10:03.829Z,50.80
2022-07-30T21:12:32.420Z,50.90
2022-07-30T21:14:59.699Z,50.90
2022-07-30T21:17:26.328Z,50.70
2022-07-30T21:19:54.712Z,51.10
2022-07-30T21:22:22.005Z,51.10
2022-07-30T21:24:50.389Z,51.20
2022-07-30T21:27:16.862Z,51.00
2022-07-30T21:29:45.574Z,51.20
2022-07-30T21:32:12.207Z,51.40
2022-07-30T21:34:42.016Z,50.80
2022-07-30T21:37:08.929Z,51.30
2022-07-30T21:39:39.849Z,51.00
2022-07-30T21:42:06.796Z,51.10
2022-07-30T21:44:33.250Z,51.50
2022-07-30T21:47:00.066Z,51.10
2022-07-30T21:49:27.787Z,51.60
2022-07-30T21:51:58.145Z,51.50
2022-07-30T21:54:29.144Z,51.40
2022-07-30T21:56:58.565Z,50.70
2022-07-30T21:59:25.142Z,51.90
2022-07-30T22:01:55.191Z,51.50
2022-07-30T22:04:21.761Z,51.80
2022-07-30T22:06:48.231Z,51.40
2022-07-30T22:09:19.509Z,51.40
2022-07-30T22:12:01.444Z,51.40
2022-07-30T22:14:28.301Z,51.60
2022-07-30T22:16:54.751Z,51.60
2022-07-30T22:19:21.199Z,51.90
2022-07-30T22:21:47.692Z,50.90
2022-07-30T22:24:29.596Z,51.80
2022-07-30T22:26:57.796Z,51.90
2022-07-30T22:31:53.626Z,51.10
2022-07-30T22:34:20.077Z,51.00
2022-07-30T22:36:48.555Z,51.80
2022-07-30T22:39:15.609Z,51.80
2022-07-30T22:41:42.087Z,51.70
2022-07-30T22:44:10.240Z,51.50
2022-07-30T22:46:39.443Z,51.50
2022-07-30T22:49:23.789Z,51.10
2022-07-30T22:52:06.883Z,51.10
2022-07-30T22:54:38.911Z,51.70
2022-07-30T22:57:05.370Z,50.80
2022-07-30T23:00:00.197Z,51.70
2022-07-30T23:02:18.258Z,51.20
2022-07-30T23:04:47.075Z,51.90
2022-07-30T23:07:19.101Z,51.30
2022-07-30T23:09:51.602Z,51.50
2022-07-30T23:12:20.245Z,51.70
2022-07-30T23:14:46.966Z,51.80
2022-07-30T23:17:13.433Z,51.20
2022-07-30T23:19:39.878Z,51.70
2022-07-30T23:22:06.324Z,51.60
2022-07-30T23:24:32.782Z,51.60
2022-07-30T23:26:59.380Z,51.40
2022-07-30T23:29:25.974Z,51.40
2022-07-30T23:31:52.486Z,51.50
2022-07-30T23:34:18.973Z,51.50
2022-07-30T23:36:45.417Z,51.40
2022-07-30T23:39:11.871Z,51.50
2022-07-30T23:41:38.327Z,51.50
2022-07-30T23:44:04.772Z,50.60
2022-07-30T23:46:31.234Z,51.60
2022-07-30T23:48:57.709Z,50.90
2022-07-30T23:51:24.210Z,51.00
2022-07-30T23:53:50.675Z,51.60
2022-07-30T23:56:19.742Z,50.80
2022-07-30T23:58:46.241Z,51.40
